createdAt,value
2018-07-20T00:00:59.099Z,0.00
2018-07-20T00:01:59.146Z,0.00
2018-07-20T00:02:59.081Z,0.00
2018-07-20T00:03:59.099Z,0.00
2018-07-20T00:04:59.108Z,0.00
2018-07-20T00:05:59.201Z,0.00
2018-07-20T00:06:59.101Z,0.00
2018-07-20T00:07:59.809Z,0.00
2018-07-20T00:08:59.119Z,0.00
2018-07-20T00:09:59.097Z,0.00
2018-07-20T00:10:59.109Z,0.00
2018-07-20T00:11:59.098Z,0.00
2018-07-20T00:12:59.141Z,0.00
2018-07-20T00:13:59.162Z,0.00
2018-07-20T00:14:59.183Z,0.00
2018-07-20T00:15:59.157Z,0.00
2018-07-20T00:16:59.148Z,0.00
2018-07-20T00:17:59.120Z,0.00
2018-07-20T00:18:59.210Z,0.00
2018-07-20T00:19:59.192Z,0.00
2018-07-20T00:20:59.157Z,0.00
2018-07-20T00:21:59.201Z,0.00
2018-07-20T00:22:59.137Z,0.00
2018-07-20T00:23:59.179Z,0.00
2018-07-20T00:24:59.162Z,0.00
2018-07-20T00:25:59.167Z,0.00
2018-07-20T00:26:59.189Z,0.00
2018-07-20T00:27:59.167Z,0.00
2018-07-20T00:28:59.154Z,0.00
2018-07-20T00:29:59.215Z,0.00
2018-07-20T00:30:59.186Z,0.00
2018-07-20T00:31:59.176Z,0.00
2018-07-20T00:32:59.205Z,0.00
2018-07-20T00:33:59.186Z,0.00
2018-07-20T00:34:59.213Z,0.00
2018-07-20T00:35:59.203Z,0.00
2018-07-20T00:36:59.230Z,0.00
2018-07-20T00:37:59.186Z,0.00
2018-07-20T00:38:59.216Z,0.00
2018-07-20T00:39:59.234Z,0.00
2018-07-20T00:40:59.205Z,0.00
2018-07-20T00:41:59.239Z,0.00
2018-07-20T00:42:59.192Z,0.00
2018-07-20T00:43:59.348Z,0.00
2018-07-20T00:44:59.206Z,0.00
2018-07-20T00:45:59.210Z,0.00
2018-07-20T00:46:59.230Z,0.00
2018-07-20T00:47:59.296Z,0.00
2018-07-20T00:48:59.222Z,0.00
2018-07-20T00:49:59.223Z,0.00
2018-07-20T00:50:59.225Z,0.00
2018-07-20T00:51:59.240Z,0.00
2018-07-20T00:52:59.225Z,0.00
2018-07-20T00:53:59.308Z,0.00
2018-07-20T00:54:59.277Z,0.00
2018-07-20T00:55:59.235Z,0.00
2018-07-20T00:56:59.246Z,0.00
2018-07-20T00:57:59.284Z,0.00
2018-07-20T00:58:59.282Z,0.00
2018-07-20T00:59:59.249Z,0.00
2018-07-20T01:00:59.286Z,0.00
2018-07-20T01:01:59.823Z,0.00
2018-07-20T01:02:59.265Z,0.00
2018-07-20T01:03:59.279Z,0.00
2018-07-20T01:04:59.275Z,0.00
2018-07-20T01:05:59.286Z,0.00
2018-07-20T01:06:59.268Z,0.00
2018-07-20T01:07:59.279Z,0.00
2018-07-20T01:08:59.276Z,0.00
2018-07-20T01:09:59.274Z,0.00
2018-07-20T01:10:59.306Z,0.00
2018-07-20T01:11:59.287Z,0.00
2018-07-20T01:12:59.298Z,0.00
2018-07-20T01:13:59.298Z,0.00
2018-07-20T01:14:59.302Z,0.00
2018-07-20T01:15:59.302Z,0.00
2018-07-20T01:16:59.354Z,0.00
2018-07-20T01:17:59.314Z,0.00
2018-07-20T01:18:59.306Z,0.00
2018-07-20T01:19:59.337Z,0.00
2018-07-20T01:20:59.338Z,0.00
2018-07-20T01:21:59.334Z,0.00
2018-07-20T01:22:59.337Z,0.00
2018-07-20T01:23:59.360Z,0.00
2018-07-20T01:24:59.326Z,0.00
2018-07-20T01:25:59.343Z,0.00
2018-07-20T01:26:59.365Z,0.00
2018-07-20T01:27:59.358Z,0.00
2018-07-20T01:28:59.354Z,0.00
2018-07-20T01:29:59.350Z,0.00
2018-07-20T01:30:59.367Z,0.00
2018-07-20T01:31:59.356Z,0.00
2018-07-20T01:32:59.380Z,0.00
2018-07-20T01:33:59.349Z,0.00
2018-07-20T01:34:59.395Z,0.00
2018-07-20T01:35:59.383Z,0.00
2018-07-20T01:36:59.392Z,0.00
2018-07-20T01:37:59.425Z,0.00
2018-07-20T01:38:59.365Z,0.00
2018-07-20T01:39:59.374Z,0.00
2018-07-20T01:40:59.381Z,0.00
2018-07-20T01:41:59.417Z,0.00
2018-07-20T01:43:00.339Z,0.00
2018-07-20T01:43:59.400Z,0.00
2018-07-20T01:44:59.411Z,0.00
2018-07-20T01:45:59.407Z,0.00
2018-07-20T01:46:59.411Z,0.00
2018-07-20T01:47:59.387Z,0.00
2018-07-20T01:48:59.403Z,0.00
2018-07-20T01:49:59.402Z,0.00
2018-07-20T01:50:59.437Z,0.00
2018-07-20T01:51:59.400Z,0.00
2018-07-20T01:52:59.435Z,0.00
2018-07-20T01:53:59.458Z,0.00
2018-07-20T01:54:59.428Z,0.00
2018-07-20T01:55:59.519Z,0.00
2018-07-20T01:56:59.446Z,0.00
2018-07-20T01:57:59.461Z,0.00
2018-07-20T01:58:59.453Z,0.00
2018-07-20T01:59:59.467Z,0.00
2018-07-20T02:00:59.457Z,0.00
2018-07-20T02:01:59.479Z,0.00
2018-07-20T02:02:59.457Z,0.00
2018-07-20T02:03:59.453Z,0.00
2018-07-20T02:04:59.455Z,0.00
2018-07-20T02:05:59.462Z,0.00
2018-07-20T02:06:59.457Z,0.00
2018-07-20T02:07:59.456Z,0.00
2018-07-20T02:08:59.527Z,0.00
2018-07-20T02:09:59.461Z,0.00
2018-07-20T02:10:59.463Z,0.00
2018-07-20T02:11:59.485Z,0.00
2018-07-20T02:12:59.485Z,0.00
2018-07-20T02:13:59.467Z,0.00
2018-07-20T02:14:59.469Z,0.00
2018-07-20T02:15:59.471Z,0.00
2018-07-20T02:16:59.476Z,0.00
2018-07-20T02:17:59.476Z,0.00
2018-07-20T02:18:59.478Z,0.00
2018-07-20T02:19:59.504Z,0.00
2018-07-20T02:20:59.524Z,0.00
2018-07-20T02:21:59.587Z,0.00
2018-07-20T02:22:59.541Z,0.00
2018-07-20T02:23:59.523Z,0.00
2018-07-20T02:24:59.504Z,0.00
2018-07-20T02:25:59.500Z,0.00
2018-07-20T02:26:59.519Z,0.00
2018-07-20T02:27:59.552Z,0.00
2018-07-20T02:28:59.509Z,0.00
2018-07-20T02:29:59.509Z,0.00
2018-07-20T02:30:59.511Z,0.00
2018-07-20T02:31:59.520Z,0.00
2018-07-20T02:32:59.520Z,0.00
2018-07-20T02:33:59.529Z,0.00
2018-07-20T02:34:59.549Z,0.00
2018-07-20T02:35:59.533Z,0.00
2018-07-20T02:36:59.709Z,0.00
2018-07-20T02:37:59.533Z,0.00
2018-07-20T02:38:59.541Z,0.00
2018-07-20T02:39:59.558Z,0.00
2018-07-20T02:41:01.461Z,0.00
2018-07-20T02:41:59.620Z,0.00
2018-07-20T02:42:59.545Z,0.00
2018-07-20T02:43:59.548Z,0.00
2018-07-20T02:44:59.557Z,0.00
2018-07-20T02:45:59.549Z,0.00
2018-07-20T02:46:59.573Z,0.00
2018-07-20T02:47:59.566Z,0.00
2018-07-20T02:48:59.568Z,0.00
2018-07-20T02:49:59.642Z,0.00
2018-07-20T02:51:00.362Z,0.00
2018-07-20T02:51:59.595Z,0.00
2018-07-20T02:52:59.591Z,0.00
2018-07-20T02:53:59.602Z,0.00
2018-07-20T02:54:59.577Z,0.00
2018-07-20T02:55:59.590Z,4.00
2018-07-20T02:56:59.642Z,4.00
2018-07-20T02:57:59.596Z,4.00
2018-07-20T02:58:59.632Z,0.00
2018-07-20T02:59:59.595Z,4.00
2018-07-20T03:00:59.629Z,4.00
2018-07-20T03:01:59.622Z,0.00
2018-07-20T03:02:59.593Z,4.00
2018-07-20T03:03:59.605Z,8.00
2018-07-20T03:04:59.600Z,4.00
2018-07-20T03:05:59.632Z,8.00
2018-07-20T03:06:59.621Z,8.00
2018-07-20T03:07:59.673Z,8.00
2018-07-20T03:08:59.774Z,8.00
2018-07-20T03:09:59.649Z,8.00
2018-07-20T03:10:59.625Z,12.00
2018-07-20T03:11:59.658Z,12.00
2018-07-20T03:12:59.630Z,12.00
2018-07-20T03:13:59.640Z,16.00
2018-07-20T03:14:59.645Z,20.00
2018-07-20T03:15:59.693Z,20.00
2018-07-20T03:16:59.669Z,24.00
2018-07-20T03:17:59.639Z,24.00
2018-07-20T03:18:59.646Z,28.00
2018-07-20T03:19:59.678Z,36.00
2018-07-20T03:20:59.692Z,36.00
2018-07-20T03:21:59.646Z,40.00
2018-07-20T03:22:59.658Z,48.00
2018-07-20T03:23:59.659Z,52.00
2018-07-20T03:24:59.670Z,56.00
2018-07-20T03:25:59.707Z,60.00
2018-07-20T03:26:59.665Z,68.00
2018-07-20T03:27:59.670Z,72.00
2018-07-20T03:28:59.679Z,76.00
2018-07-20T03:29:59.691Z,84.00
2018-07-20T03:30:59.786Z,92.00
2018-07-20T03:31:59.676Z,96.00
2018-07-20T03:32:59.789Z,104.00
2018-07-20T03:33:59.718Z,116.00
2018-07-20T03:34:59.690Z,120.00
2018-07-20T03:35:59.689Z,128.00
2018-07-20T03:36:59.692Z,136.00
2018-07-20T03:37:59.730Z,144.00
2018-07-20T03:38:59.695Z,160.00
2018-07-20T03:39:59.726Z,172.00
2018-07-20T03:40:59.731Z,188.00
2018-07-20T03:41:59.725Z,196.00
2018-07-20T03:42:59.713Z,208.00
2018-07-20T03:43:59.847Z,216.00
2018-07-20T03:44:59.744Z,220.00
2018-07-20T03:45:59.723Z,228.00
2018-07-20T03:46:59.724Z,240.00
2018-07-20T03:47:59.709Z,244.00
2018-07-20T03:48:59.816Z,252.00
2018-07-20T03:49:59.734Z,264.00
2018-07-20T03:50:59.783Z,280.00
2018-07-20T03:52:01.465Z,308.00
2018-07-20T03:52:59.791Z,332.00
2018-07-20T03:54:00.391Z,352.00
2018-07-20T03:54:59.774Z,380.00
2018-07-20T03:55:59.768Z,400.00
2018-07-20T03:56:59.797Z,420.00
2018-07-20T03:57:59.747Z,436.00
2018-07-20T03:58:59.759Z,448.00
2018-07-20T03:59:59.764Z,464.00
2018-07-20T04:01:08.747Z,476.00
2018-07-20T04:02:53.245Z,508.00
2018-07-20T04:03:54.784Z,528.00
2018-07-20T04:04:53.350Z,548.00
2018-07-20T04:05:53.216Z,560.00
2018-07-20T04:06:53.163Z,568.00
2018-07-20T04:07:53.185Z,572.00
2018-07-20T04:08:53.171Z,588.00
2018-07-20T04:09:53.226Z,608.00
2018-07-20T04:10:53.181Z,624.00
2018-07-20T04:11:53.186Z,636.00
2018-07-20T04:12:53.193Z,660.00
2018-07-20T04:13:53.338Z,684.00
2018-07-20T04:14:53.226Z,712.00
2018-07-20T04:15:53.193Z,744.00
2018-07-20T04:16:53.207Z,776.00
2018-07-20T04:17:53.216Z,820.00
2018-07-20T04:18:53.216Z,876.00
2018-07-20T04:19:53.224Z,932.00
2018-07-20T04:20:53.200Z,980.00
2018-07-20T04:21:53.247Z,1020.00
2018-07-20T04:22:53.231Z,1032.00
2018-07-20T04:23:53.220Z,1032.00
2018-07-20T04:24:53.233Z,1048.00
2018-07-20T04:25:53.279Z,1060.00
2018-07-20T04:26:53.255Z,1076.00
2018-07-20T04:27:53.250Z,1100.00
2018-07-20T04:28:53.241Z,1120.00
2018-07-20T04:29:53.265Z,1144.00
2018-07-20T04:30:53.233Z,1180.00
2018-07-20T04:31:53.250Z,1204.00
2018-07-20T04:32:53.243Z,1236.00
2018-07-20T04:33:53.264Z,1280.00
2018-07-20T04:34:53.295Z,1324.00
2018-07-20T04:35:53.249Z,1376.00
2018-07-20T04:36:53.267Z,1424.00
2018-07-20T04:37:53.302Z,1496.00
2018-07-20T04:38:53.295Z,1556.00
2018-07-20T04:39:53.306Z,1604.00
2018-07-20T04:40:53.300Z,1656.00
2018-07-20T04:41:53.268Z,1712.00
2018-07-20T04:42:53.254Z,1776.00
2018-07-20T04:43:53.323Z,1864.00
2018-07-20T04:44:53.267Z,1960.00
2018-07-20T04:45:53.271Z,2056.00
2018-07-20T04:46:53.306Z,2152.00
2018-07-20T04:47:53.331Z,2232.00
2018-07-20T04:48:53.300Z,2288.00
2018-07-20T04:49:53.357Z,2344.00
2018-07-20T04:50:53.321Z,2396.00
2018-07-20T04:51:53.330Z,2476.00
2018-07-20T04:52:53.349Z,2584.00
2018-07-20T04:53:53.319Z,2668.00
2018-07-20T04:54:53.337Z,2708.00
2018-07-20T04:55:53.298Z,2732.00
2018-07-20T04:56:53.301Z,2752.00
2018-07-20T04:57:53.335Z,2776.00
2018-07-20T04:58:53.378Z,2816.00
2018-07-20T04:59:53.366Z,2876.00
2018-07-20T05:00:53.314Z,2972.00
2018-07-20T05:01:53.324Z,3040.00
2018-07-20T05:02:53.338Z,3076.00
2018-07-20T05:03:53.318Z,3100.00
2018-07-20T05:04:53.321Z,3160.00
2018-07-20T05:05:53.409Z,3236.00
2018-07-20T05:06:53.329Z,3308.00
2018-07-20T05:07:53.339Z,3316.00
2018-07-20T05:08:53.326Z,3300.00
2018-07-20T05:09:53.341Z,3280.00
2018-07-20T05:10:53.337Z,3260.00
2018-07-20T05:11:53.361Z,3284.00
2018-07-20T05:12:53.363Z,3324.00
2018-07-20T05:13:53.353Z,3380.00
2018-07-20T05:14:53.366Z,3444.00
2018-07-20T05:15:53.369Z,3492.00
2018-07-20T05:16:53.376Z,3536.00
2018-07-20T05:17:53.363Z,3484.00
2018-07-20T05:18:53.360Z,3440.00
2018-07-20T05:19:53.377Z,3368.00
2018-07-20T05:20:53.512Z,3312.00
2018-07-20T05:21:53.372Z,3276.00
2018-07-20T05:22:53.379Z,3328.00
2018-07-20T05:23:53.391Z,3412.00
2018-07-20T05:24:53.401Z,3552.00
2018-07-20T05:25:53.384Z,3700.00
2018-07-20T05:26:53.428Z,3896.00
2018-07-20T05:27:53.414Z,4096.00
2018-07-20T05:28:53.392Z,4268.00
2018-07-20T05:29:53.388Z,4432.00
2018-07-20T05:30:53.409Z,4560.00
2018-07-20T05:31:53.395Z,4688.00
2018-07-20T05:32:53.408Z,4848.00
2018-07-20T05:33:53.417Z,5004.00
2018-07-20T05:34:53.423Z,5852.00
2018-07-20T05:35:53.413Z,5276.00
2018-07-20T05:36:53.409Z,5408.00
2018-07-20T05:37:53.428Z,5824.00
2018-07-20T05:38:53.441Z,5392.00
2018-07-20T05:39:53.430Z,5536.00
2018-07-20T05:40:53.427Z,5672.00
2018-07-20T05:41:53.433Z,6632.00
2018-07-20T05:42:53.501Z,6976.00
2018-07-20T05:43:53.508Z,6960.00
2018-07-20T05:44:53.465Z,7080.00
2018-07-20T05:45:53.503Z,7176.00
2018-07-20T05:46:53.459Z,7304.00
2018-07-20T05:47:53.478Z,7460.00
2018-07-20T05:48:53.491Z,7540.00
2018-07-20T05:49:53.475Z,7736.00
2018-07-20T05:50:53.475Z,7804.00
2018-07-20T05:51:53.472Z,7976.00
2018-07-20T05:52:53.522Z,7980.00
2018-07-20T05:53:53.473Z,7884.00
2018-07-20T05:54:53.484Z,8024.00
2018-07-20T05:55:53.487Z,8016.00
2018-07-20T05:56:53.487Z,8092.00
2018-07-20T05:57:53.491Z,8328.00
2018-07-20T05:58:53.496Z,8544.00
2018-07-20T05:59:53.507Z,8752.00
2018-07-20T06:00:53.531Z,8932.00
2018-07-20T06:01:53.528Z,9016.00
2018-07-20T06:02:53.513Z,9160.00
2018-07-20T06:03:53.529Z,9312.00
2018-07-20T06:04:53.527Z,9484.00
2018-07-20T06:05:53.548Z,9628.00
2018-07-20T06:06:53.561Z,9744.00
2018-07-20T06:07:53.546Z,9848.00
2018-07-20T06:08:53.578Z,9916.00
2018-07-20T06:09:53.606Z,9792.00
2018-07-20T06:10:53.580Z,9532.00
2018-07-20T06:11:53.633Z,9060.00
2018-07-20T06:12:53.589Z,8472.00
2018-07-20T06:13:53.612Z,8660.00
2018-07-20T06:14:53.600Z,9296.00
2018-07-20T06:15:53.594Z,9664.00
2018-07-20T06:16:53.595Z,9944.00
2018-07-20T06:17:53.638Z,10204.00
2018-07-20T06:18:53.630Z,10248.00
2018-07-20T06:19:53.636Z,10424.00
2018-07-20T06:20:53.661Z,10504.00
2018-07-20T06:21:53.629Z,10484.00
2018-07-20T06:22:53.647Z,10912.00
2018-07-20T06:23:53.749Z,11144.00
2018-07-20T06:24:53.681Z,11296.00
2018-07-20T06:25:53.656Z,11308.00
2018-07-20T06:26:53.692Z,11660.00
2018-07-20T06:27:53.675Z,12064.00
2018-07-20T06:28:53.676Z,12328.00
2018-07-20T06:29:53.689Z,12936.00
2018-07-20T06:30:53.710Z,13716.00
2018-07-20T06:31:53.735Z,14164.00
2018-07-20T06:32:53.742Z,14436.00
2018-07-20T06:33:53.718Z,14028.00
2018-07-20T06:34:53.828Z,13276.00
2018-07-20T06:35:53.779Z,11420.00
2018-07-20T06:36:53.752Z,10856.00
2018-07-20T06:37:53.755Z,10580.00
2018-07-20T06:38:53.769Z,10788.00
2018-07-20T06:39:53.767Z,11304.00
2018-07-20T06:40:53.813Z,11564.00
2018-07-20T06:41:53.783Z,11308.00
2018-07-20T06:42:53.804Z,13536.00
2018-07-20T06:43:53.827Z,14856.00
2018-07-20T06:44:53.816Z,13880.00
2018-07-20T06:45:53.846Z,12716.00
2018-07-20T06:46:53.832Z,12764.00
2018-07-20T06:47:53.869Z,12736.00
2018-07-20T06:48:53.854Z,13700.00
2018-07-20T06:49:53.963Z,13984.00
2018-07-20T06:50:53.867Z,12252.00
2018-07-20T06:51:53.906Z,11868.00
2018-07-20T06:52:53.893Z,12492.00
2018-07-20T06:53:53.929Z,12476.00
2018-07-20T06:54:53.888Z,13460.00
2018-07-20T06:55:54.036Z,14148.00
2018-07-20T06:56:53.925Z,15124.00
2018-07-20T06:57:53.946Z,15260.00
2018-07-20T06:58:53.949Z,15676.00
2018-07-20T06:59:53.942Z,15464.00
2018-07-20T07:00:53.977Z,15372.00
2018-07-20T07:01:53.987Z,15560.00
2018-07-20T07:02:53.958Z,16220.00
2018-07-20T07:03:53.977Z,15924.00
2018-07-20T07:04:53.982Z,15800.00
2018-07-20T07:05:53.997Z,15164.00
2018-07-20T07:06:54.020Z,13556.00
2018-07-20T07:07:54.004Z,15216.00
2018-07-20T07:08:54.027Z,15264.00
2018-07-20T07:09:54.012Z,15636.00
2018-07-20T07:10:54.024Z,16092.00
2018-07-20T07:11:54.060Z,16388.00
2018-07-20T07:12:54.120Z,17632.00
2018-07-20T07:13:55.782Z,18048.00
2018-07-20T07:14:54.086Z,18400.00
2018-07-20T07:15:54.080Z,18976.00
2018-07-20T07:16:54.090Z,19264.00
2018-07-20T07:17:54.131Z,19552.00
2018-07-20T07:18:54.104Z,19520.00
2018-07-20T07:19:54.126Z,19232.00
2018-07-20T07:20:54.194Z,19424.00
2018-07-20T07:21:54.157Z,19328.00
2018-07-20T07:22:54.369Z,19680.00
2018-07-20T07:23:54.157Z,20320.00
2018-07-20T07:24:54.218Z,20864.00
2018-07-20T07:25:54.233Z,21568.00
2018-07-20T07:26:54.222Z,22400.00
2018-07-20T07:27:54.217Z,22496.00
2018-07-20T07:28:54.215Z,22752.00
2018-07-20T07:29:54.225Z,23968.00
2018-07-20T07:30:54.274Z,24672.00
2018-07-20T07:31:54.260Z,26592.00
2018-07-20T07:32:54.320Z,27232.00
2018-07-20T07:33:54.271Z,30080.00
2018-07-20T07:34:54.295Z,32640.00
2018-07-20T07:35:54.376Z,35840.00
2018-07-20T07:36:54.333Z,41664.00
2018-07-20T07:37:54.461Z,48832.00
2018-07-20T07:38:54.339Z,57920.00
2018-07-20T07:39:54.375Z,64672.00
2018-07-20T07:40:54.365Z,69248.00
2018-07-20T07:41:54.399Z,73728.00
2018-07-20T07:42:54.398Z,79328.00
2018-07-20T07:43:54.441Z,86176.00
2018-07-20T07:44:54.436Z,90368.00
2018-07-20T07:45:54.457Z,94880.00
2018-07-20T07:46:54.446Z,94528.00
2018-07-20T07:47:54.465Z,90400.00
2018-07-20T07:48:54.486Z,85728.00
2018-07-20T07:49:54.508Z,83360.00
2018-07-20T07:50:54.505Z,80064.00
2018-07-20T07:51:54.531Z,76320.00
2018-07-20T07:52:54.540Z,73760.00
2018-07-20T07:53:54.548Z,70304.00
2018-07-20T07:54:54.593Z,65984.00
2018-07-20T07:55:54.568Z,60608.00
2018-07-20T07:56:54.600Z,56832.00
2018-07-20T07:57:54.593Z,57120.00
2018-07-20T07:58:54.612Z,56512.00
2018-07-20T07:59:54.618Z,54528.00
2018-07-20T08:00:54.689Z,52704.00
2018-07-20T08:01:54.669Z,55424.00
2018-07-20T08:02:54.690Z,54496.00
2018-07-20T08:03:54.691Z,51968.00
2018-07-20T08:04:54.733Z,51424.00
2018-07-20T08:05:56.341Z,49856.00
2018-07-20T08:06:55.354Z,50784.00
2018-07-20T08:07:54.757Z,53600.00
2018-07-20T08:08:54.764Z,54272.00
2018-07-20T08:09:54.887Z,52832.00
2018-07-20T08:10:54.846Z,47552.00
2018-07-20T08:11:54.898Z,45952.00
2018-07-20T08:12:54.827Z,47840.00
2018-07-20T08:13:54.849Z,48352.00
2018-07-20T08:14:54.854Z,47936.00
2018-07-20T08:15:54.963Z,47296.00
2018-07-20T08:16:54.883Z,46464.00
2018-07-20T08:17:54.903Z,44000.00
2018-07-20T08:18:54.921Z,44032.00
2018-07-20T08:19:54.995Z,44768.00
2018-07-20T08:20:54.949Z,45024.00
2018-07-20T08:21:54.969Z,42720.00
2018-07-20T08:22:55.104Z,42080.00
2018-07-20T08:23:55.022Z,41664.00
2018-07-20T08:24:55.062Z,42272.00
2018-07-20T08:25:55.050Z,43040.00
2018-07-20T08:26:55.064Z,44800.00
2018-07-20T08:27:55.861Z,44512.00
2018-07-20T08:28:55.098Z,43168.00
2018-07-20T08:29:55.102Z,46080.00
2018-07-20T08:30:55.152Z,47808.00
2018-07-20T08:31:55.178Z,46816.00
2018-07-20T08:32:55.177Z,44832.00
2018-07-20T08:33:55.211Z,45408.00
2018-07-20T08:34:55.223Z,46720.00
2018-07-20T08:35:55.366Z,48672.00
2018-07-20T08:36:55.267Z,49216.00
2018-07-20T08:37:55.302Z,47744.00
2018-07-20T08:38:55.323Z,47680.00
2018-07-20T08:39:55.313Z,50176.00
2018-07-20T08:40:55.667Z,49664.00
2018-07-20T08:41:55.364Z,50560.00
2018-07-20T08:42:55.396Z,55072.00
2018-07-20T08:43:55.381Z,61600.00
2018-07-20T08:44:55.431Z,59936.00
2018-07-20T08:45:56.292Z,57760.00
2018-07-20T08:46:55.418Z,64256.00
2018-07-20T08:47:55.465Z,68320.00
2018-07-20T08:48:56.300Z,68896.00
2018-07-20T08:49:55.508Z,65376.00
2018-07-20T08:50:55.508Z,57312.00
2018-07-20T08:51:55.548Z,50496.00
2018-07-20T08:52:55.552Z,47392.00
2018-07-20T08:53:55.566Z,46784.00
2018-07-20T08:54:55.638Z,45600.00
2018-07-20T08:55:55.680Z,46016.00
2018-07-20T08:56:55.792Z,46176.00
2018-07-20T08:57:55.616Z,45120.00
2018-07-20T08:58:55.733Z,43264.00
2018-07-20T08:59:55.727Z,46720.00
2018-07-20T09:00:55.733Z,46496.00
2018-07-20T09:01:55.697Z,46784.00
2018-07-20T09:02:55.718Z,46688.00
2018-07-20T09:03:55.757Z,46848.00
2018-07-20T09:04:55.767Z,46816.00
2018-07-20T09:05:56.296Z,47072.00
2018-07-20T09:06:56.789Z,46752.00
2018-07-20T09:07:55.815Z,46368.00
2018-07-20T09:08:55.825Z,46240.00
2018-07-20T09:09:55.870Z,45728.00
2018-07-20T09:10:56.792Z,45312.00
2018-07-20T09:11:55.898Z,44928.00
2018-07-20T09:12:55.898Z,44576.00
2018-07-20T09:13:56.078Z,44192.00
2018-07-20T09:14:55.974Z,43584.00
2018-07-20T09:15:56.000Z,43872.00
2018-07-20T09:16:56.005Z,44224.00
2018-07-20T09:17:55.995Z,43328.00
2018-07-20T09:18:56.022Z,42976.00
2018-07-20T09:19:56.059Z,42496.00
2018-07-20T09:20:56.146Z,42048.00
2018-07-20T09:21:56.904Z,41824.00
2018-07-20T09:22:56.167Z,41696.00
2018-07-20T09:23:56.165Z,41792.00
2018-07-20T09:24:56.195Z,42272.00
2018-07-20T09:25:56.172Z,42528.00
2018-07-20T09:26:56.703Z,42944.00
2018-07-20T09:27:56.365Z,44768.00
2018-07-20T09:28:56.291Z,51712.00
2018-07-20T09:42:24.143Z,60512.00
2018-07-20T09:43:17.437Z,62112.00
2018-07-20T09:44:19.581Z,61824.00
2018-07-20T09:45:17.179Z,60960.00
2018-07-20T09:46:17.662Z,59680.00
2018-07-20T09:47:18.589Z,62336.00
2018-07-20T09:48:17.392Z,64000.00
2018-07-20T09:49:17.320Z,66144.00
2018-07-20T09:50:17.361Z,70944.00
2018-07-20T09:51:17.327Z,80512.00
2018-07-20T09:52:17.404Z,85984.00
2018-07-20T09:53:17.372Z,86912.00
2018-07-20T09:54:17.374Z,87168.00
2018-07-20T09:55:17.486Z,86592.00
2018-07-20T09:56:17.459Z,82144.00
2018-07-20T09:57:17.502Z,84096.00
2018-07-20T09:58:17.547Z,88160.00
2018-07-20T09:59:17.566Z,85216.00
2018-07-20T10:00:17.489Z,86080.00
2018-07-20T10:01:17.566Z,88704.00
2018-07-20T10:02:17.606Z,82688.00
2018-07-20T10:03:17.704Z,83392.00
2018-07-20T10:04:18.605Z,80224.00
2018-07-20T10:05:17.640Z,77824.00
2018-07-20T10:06:17.640Z,57760.00
2018-07-20T10:07:17.699Z,74176.00
2018-07-20T10:08:17.755Z,77120.00
2018-07-20T10:09:17.765Z,82304.00
2018-07-20T10:10:17.774Z,80832.00
2018-07-20T10:11:17.800Z,81600.00
2018-07-20T10:12:17.847Z,85216.00
2018-07-20T10:13:17.854Z,87648.00
2018-07-20T10:14:17.996Z,78432.00
2018-07-20T10:15:17.883Z,82784.00
2018-07-20T10:16:17.909Z,80896.00
2018-07-20T10:17:17.911Z,81952.00
2018-07-20T10:18:17.969Z,77792.00
2018-07-20T10:19:17.927Z,67840.00
2018-07-20T10:20:17.993Z,63808.00
2018-07-20T10:21:19.069Z,68576.00
2018-07-20T10:22:17.989Z,70112.00
2018-07-20T10:23:18.017Z,67936.00
2018-07-20T10:24:18.202Z,67936.00
2018-07-20T10:25:18.135Z,70560.00
2018-07-20T10:26:18.083Z,68512.00
2018-07-20T10:27:20.750Z,69600.00
2018-07-20T10:28:18.191Z,65344.00
2018-07-20T10:29:18.204Z,58144.00
2018-07-20T10:30:18.236Z,51424.00
2018-07-20T10:31:18.299Z,56320.00
2018-07-20T10:32:18.259Z,54880.00
2018-07-20T10:33:18.307Z,60128.00
2018-07-20T10:34:21.406Z,65504.00
2018-07-20T10:35:39.834Z,68512.00
2018-07-20T10:36:19.778Z,71104.00
2018-07-20T10:37:18.840Z,69088.00
2018-07-20T10:38:19.628Z,68608.00
2018-07-20T10:39:23.630Z,72512.00
2018-07-20T10:40:20.319Z,67360.00
2018-07-20T10:41:22.777Z,74400.00
2018-07-20T10:42:18.811Z,73056.00
2018-07-20T10:43:18.467Z,74912.00
2018-07-20T10:44:18.572Z,71584.00
2018-07-20T10:45:18.625Z,73920.00
2018-07-20T10:46:18.674Z,72960.00
2018-07-20T10:47:19.149Z,71552.00
2018-07-20T10:48:18.581Z,68640.00
2018-07-20T10:49:18.609Z,44192.00
2018-07-20T10:50:18.622Z,18592.00
2018-07-20T10:51:18.628Z,13892.00
2018-07-20T10:52:18.691Z,12312.00
2018-07-20T10:53:18.931Z,11764.00
2018-07-20T10:54:18.703Z,11456.00
2018-07-20T10:55:18.761Z,11464.00
2018-07-20T10:56:18.757Z,11228.00
2018-07-20T10:57:18.783Z,11048.00
2018-07-20T10:58:21.067Z,10704.00
2018-07-20T10:59:18.788Z,10372.00
2018-07-20T11:00:18.808Z,10468.00
2018-07-20T11:01:18.852Z,10724.00
2018-07-20T11:02:18.862Z,10912.00
2018-07-20T11:03:19.632Z,11028.00
2018-07-20T11:04:18.898Z,11372.00
2018-07-20T11:05:18.890Z,11776.00
2018-07-20T11:06:19.156Z,12136.00
2018-07-20T11:07:18.950Z,12428.00
2018-07-20T11:08:18.972Z,12716.00
2018-07-20T11:09:18.949Z,12924.00
2018-07-20T11:10:19.050Z,13068.00
2018-07-20T11:11:19.798Z,13144.00
2018-07-20T11:12:19.016Z,13108.00
2018-07-20T11:13:19.070Z,13052.00
2018-07-20T11:14:19.067Z,13068.00
2018-07-20T11:15:20.154Z,13064.00
2018-07-20T11:16:19.094Z,12820.00
2018-07-20T11:17:19.107Z,12504.00
2018-07-20T11:18:19.086Z,12352.00
2018-07-20T11:19:19.123Z,12280.00
2018-07-20T11:20:19.183Z,12192.00
2018-07-20T11:21:19.158Z,12096.00
2018-07-20T11:22:19.168Z,11956.00
2018-07-20T11:23:19.179Z,11832.00
2018-07-20T11:24:19.288Z,11724.00
2018-07-20T11:25:20.151Z,11692.00
2018-07-20T11:26:20.737Z,11692.00
2018-07-20T11:27:19.229Z,11676.00
2018-07-20T11:28:19.356Z,11648.00
2018-07-20T11:29:19.349Z,11608.00
2018-07-20T11:30:19.305Z,11436.00
2018-07-20T11:31:19.300Z,11176.00
2018-07-20T11:32:19.328Z,10804.00
2018-07-20T11:33:19.325Z,10540.00
2018-07-20T11:34:19.341Z,10312.00
2018-07-20T11:35:19.367Z,10364.00
2018-07-20T11:36:19.336Z,10500.00
2018-07-20T11:37:19.395Z,10612.00
2018-07-20T11:38:19.390Z,10712.00
2018-07-20T11:39:19.418Z,10816.00
2018-07-20T11:40:20.155Z,10844.00
2018-07-20T11:41:19.541Z,10860.00
2018-07-20T11:42:20.429Z,10948.00
2018-07-20T11:43:23.384Z,11024.00
2018-07-20T11:44:22.497Z,10824.00
2018-07-20T11:45:20.154Z,10768.00
2018-07-20T11:46:20.157Z,10852.00
2018-07-20T11:47:20.826Z,10932.00
2018-07-20T11:48:41.050Z,11244.00
2018-07-20T11:49:19.680Z,11592.00
2018-07-20T11:50:19.583Z,11428.00
2018-07-20T11:51:19.509Z,11436.00
2018-07-20T11:52:19.580Z,11316.00
2018-07-20T11:53:19.569Z,11416.00
2018-07-20T11:54:19.565Z,11680.00
2018-07-20T11:55:19.589Z,11896.00
2018-07-20T11:56:19.568Z,12324.00
2018-07-20T11:57:19.645Z,12192.00
2018-07-20T11:58:19.688Z,12068.00
2018-07-20T11:59:19.629Z,11684.00
2018-07-20T12:00:19.659Z,11104.00
2018-07-20T12:02:52.695Z,10024.00
2018-07-20T12:03:52.142Z,10116.00
2018-07-20T12:04:52.160Z,9908.00
2018-07-20T12:05:53.061Z,9848.00
2018-07-20T12:06:52.220Z,9956.00
2018-07-20T12:07:52.206Z,10252.00
2018-07-20T12:08:52.186Z,10480.00
2018-07-20T12:09:58.978Z,10692.00
2018-07-20T12:10:52.463Z,11092.00
2018-07-20T12:11:52.505Z,11364.00
2018-07-20T12:12:52.246Z,11412.00
2018-07-20T12:13:52.272Z,11236.00
2018-07-20T12:14:52.274Z,10880.00
2018-07-20T12:15:52.406Z,10388.00
2018-07-20T12:16:52.273Z,9928.00
2018-07-20T12:17:53.833Z,9700.00
2018-07-20T12:18:52.317Z,9624.00
2018-07-20T12:19:52.331Z,9592.00
2018-07-20T12:20:52.339Z,9664.00
2018-07-20T12:21:52.349Z,9656.00
2018-07-20T12:22:57.650Z,9676.00
2018-07-20T12:23:53.400Z,9600.00
2018-07-20T12:24:52.399Z,9556.00
2018-07-20T12:25:52.417Z,9420.00
2018-07-20T12:26:52.429Z,9304.00
2018-07-20T12:27:52.448Z,9056.00
2018-07-20T12:28:52.402Z,8920.00
2018-07-20T12:29:52.483Z,8792.00
2018-07-20T12:30:52.592Z,8440.00